sensor_id;sensor_type;location;lat;lon;timestamp;temperature;humidity
38848;DHT22;24602;44.780;20.408;2022-08-21T00:00:36;22.30;99.90
38848;DHT22;24602;44.780;20.408;2022-08-21T00:03:12;22.30;99.90
38848;DHT22;24602;44.780;20.408;2022-08-21T00:05:47;22.30;99.90
38848;DHT22;24602;44.780;20.408;2022-08-21T00:08:21;22.20;99.90
38848;DHT22;24602;44.780;20.408;2022-08-21T00:10:57;22.20;99.90
38848;DHT22;24602;44.780;20.408;2022-08-21T00:13:25;22.20;99.90
38848;DHT22;24602;44.780;20.408;2022-08-21T00:15:55;22.10;99.90
38848;DHT22;24602;44.780;20.408;2022-08-21T00:18:26;22.10;99.90
38848;DHT22;24602;44.780;20.408;2022-08-21T00:20:58;22.00;99.90
38848;DHT22;24602;44.780;20.408;2022-08-21T00:23:28;22.00;99.90
38848;DHT22;24602;44.780;20.408;2022-08-21T00:25:59;22.00;99.90
38848;DHT22;24602;44.780;20.408;2022-08-21T00:28:30;21.80;99.90
38848;DHT22;24602;44.780;20.408;2022-08-21T00:31:00;21.80;99.90
38848;DHT22;24602;44.780;20.408;2022-08-21T00:33:34;21.70;99.90
38848;DHT22;24602;44.780;20.408;2022-08-21T00:36:04;21.70;99.90
38848;DHT22;24602;44.780;20.408;2022-08-21T00:38:38;21.70;99.90
38848;DHT22;24602;44.780;20.408;2022-08-21T00:41:08;21.70;99.90
38848;DHT22;24602;44.780;20.408;2022-08-21T00:43:57;21.70;99.90
38848;DHT22;24602;44.780;20.408;2022-08-21T00:46:28;21.60;99.90
38848;DHT22;24602;44.780;20.408;2022-08-21T00:48:58;21.60;99.90
38848;DHT22;24602;44.780;20.408;2022-08-21T00:51:57;21.50;99.90
38848;DHT22;24602;44.780;20.408;2022-08-21T00:54:31;21.50;99.90
38848;DHT22;24602;44.780;20.408;2022-08-21T00:57:19;21.50;99.90
38848;DHT22;24602;44.780;20.408;2022-08-21T00:59:54;21.40;99.90
38848;DHT22;24602;44.780;20.408;2022-08-21T01:02:33;21.20;99.90
38848;DHT22;24602;44.780;20.408;2022-08-21T01:05:05;21.10;99.90
38848;DHT22;24602;44.780;20.408;2022-08-21T01:07:36;21.10;99.90
38848;DHT22;24602;44.780;20.408;2022-08-21T01:10:08;21.00;99.90
38848;DHT22;24602;44.780;20.408;2022-08-21T01:12:47;21.00;99.90
38848;DHT22;24602;44.780;20.408;2022-08-21T01:15:16;20.80;99.90
38848;DHT22;24602;44.780;20.408;2022-08-21T01:17:48;20.70;99.90
38848;DHT22;24602;44.780;20.408;2022-08-21T01:20:20;20.60;99.90
38848;DHT22;24602;44.780;20.408;2022-08-21T01:22:49;20.60;99.90
38848;DHT22;24602;44.780;20.408;2022-08-21T01:25:22;20.50;99.90
38848;DHT22;24602;44.780;20.408;2022-08-21T01:27:50;20.50;99.90
38848;DHT22;24602;44.780;20.408;2022-08-21T01:30:24;20.50;99.90
38848;DHT22;24602;44.780;20.408;2022-08-21T01:32:59;20.40;99.90
38848;DHT22;24602;44.780;20.408;2022-08-21T01:35:29;20.40;99.90
38848;DHT22;24602;44.780;20.408;2022-08-21T01:38:00;20.40;99.90
38848;DHT22;24602;44.780;20.408;2022-08-21T01:40:29;20.50;99.90
38848;DHT22;24602;44.780;20.408;2022-08-21T01:43:00;20.50;99.90
38848;DHT22;24602;44.780;20.408;2022-08-21T01:45:29;20.60;99.90
38848;DHT22;24602;44.780;20.408;2022-08-21T01:48:00;20.50;99.90
38848;DHT22;24602;44.780;20.408;2022-08-21T01:50:34;20.40;99.90
38848;DHT22;24602;44.780;20.408;2022-08-21T01:53:05;20.40;99.90
38848;DHT22;24602;44.780;20.408;2022-08-21T01:55:35;20.30;99.90
38848;DHT22;24602;44.780;20.408;2022-08-21T01:58:05;20.30;99.90
38848;DHT22;24602;44.780;20.408;2022-08-21T02:00:37;20.30;99.90
38848;DHT22;24602;44.780;20.408;2022-08-21T02:03:09;20.30;99.90
38848;DHT22;24602;44.780;20.408;2022-08-21T02:05:38;20.30;99.90
38848;DHT22;24602;44.780;20.408;2022-08-21T02:08:10;20.30;99.90
38848;DHT22;24602;44.780;20.408;2022-08-21T02:10:38;20.20;99.90
38848;DHT22;24602;44.780;20.408;2022-08-21T02:13:16;20.20;99.90
38848;DHT22;24602;44.780;20.408;2022-08-21T02:15:44;20.20;99.90
38848;DHT22;24602;44.780;20.408;2022-08-21T02:18:21;20.20;99.90
38848;DHT22;24602;44.780;20.408;2022-08-21T02:20:50;20.20;99.90
38848;DHT22;24602;44.780;20.408;2022-08-21T02:23:28;20.10;99.90
38848;DHT22;24602;44.780;20.408;2022-08-21T02:26:15;20.10;99.90
38848;DHT22;24602;44.780;20.408;2022-08-21T02:28:45;20.10;99.90
38848;DHT22;24602;44.780;20.408;2022-08-21T02:31:13;20.10;99.90
38848;DHT22;24602;44.780;20.408;2022-08-21T02:33:41;20.10;99.90
38848;DHT22;24602;44.780;20.408;2022-08-21T02:36:10;20.10;99.90
38848;DHT22;24602;44.780;20.408;2022-08-21T02:38:42;20.10;99.90
38848;DHT22;24602;44.780;20.408;2022-08-21T02:41:14;20.10;99.90
38848;DHT22;24602;44.780;20.408;2022-08-21T02:43:45;20.20;99.90
38848;DHT22;24602;44.780;20.408;2022-08-21T02:46:19;20.10;99.90
38848;DHT22;24602;44.780;20.408;2022-08-21T02:48:49;20.20;99.90
38848;DHT22;24602;44.780;20.408;2022-08-21T02:51:21;20.10;99.90
38848;DHT22;24602;44.780;20.408;2022-08-21T02:53:56;20.10;99.90
38848;DHT22;24602;44.780;20.408;2022-08-21T02:56:25;20.20;99.90
38848;DHT22;24602;44.780;20.408;2022-08-21T02:58:59;20.30;99.90
38848;DHT22;24602;44.780;20.408;2022-08-21T03:01:29;20.30;99.90
38848;DHT22;24602;44.780;20.408;2022-08-21T03:04:01;20.40;99.90
38848;DHT22;24602;44.780;20.408;2022-08-21T03:06:31;20.40;99.90
38848;DHT22;24602;44.780;20.408;2022-08-21T03:09:05;20.50;99.90
38848;DHT22;24602;44.780;20.408;2022-08-21T03:11:33;20.50;99.90
38848;DHT22;24602;44.780;20.408;2022-08-21T03:14:05;20.40;99.90
38848;DHT22;24602;44.780;20.408;2022-08-21T03:16:35;20.40;99.90
38848;DHT22;24602;44.780;20.408;2022-08-21T03:19:05;20.40;99.90
38848;DHT22;24602;44.780;20.408;2022-08-21T03:21:35;20.40;99.90
38848;DHT22;24602;44.780;20.408;2022-08-21T03:24:07;20.40;99.90
38848;DHT22;24602;44.780;20.408;2022-08-21T03:26:35;20.30;99.90
38848;DHT22;24602;44.780;20.408;2022-08-21T03:29:08;20.30;99.90
38848;DHT22;24602;44.780;20.408;2022-08-21T03:31:38;20.30;99.90
38848;DHT22;24602;44.780;20.408;2022-08-21T03:34:13;20.30;99.90
38848;DHT22;24602;44.780;20.408;2022-08-21T03:36:43;20.30;99.90
38848;DHT22;24602;44.780;20.408;2022-08-21T03:39:13;20.40;99.90
38848;DHT22;24602;44.780;20.408;2022-08-21T03:41:44;20.50;99.90
38848;DHT22;24602;44.780;20.408;2022-08-21T03:44:15;20.40;99.90
38848;DHT22;24602;44.780;20.408;2022-08-21T03:46:52;20.40;99.90
38848;DHT22;24602;44.780;20.408;2022-08-21T03:49:25;20.40;99.90
38848;DHT22;24602;44.780;20.408;2022-08-21T03:51:54;20.30;99.90
38848;DHT22;24602;44.780;20.408;2022-08-21T03:54:26;20.30;99.90
38848;DHT22;24602;44.780;20.408;2022-08-21T03:56:56;20.30;99.90
38848;DHT22;24602;44.780;20.408;2022-08-21T03:59:23;20.20;99.90
38848;DHT22;24602;44.780;20.408;2022-08-21T04:01:55;20.20;99.90
38848;DHT22;24602;44.780;20.408;2022-08-21T04:04:27;20.10;99.90
38848;DHT22;24602;44.780;20.408;2022-08-21T04:07:00;20.20;99.90
38848;DHT22;24602;44.780;20.408;2022-08-21T04:09:31;20.20;99.90
38848;DHT22;24602;44.780;20.408;2022-08-21T04:12:01;20.20;99.90
38848;DHT22;24602;44.780;20.408;2022-08-21T04:14:31;20.30;99.90
38848;DHT22;24602;44.780;20.408;2022-08-21T04:16:58;20.30;99.90
38848;DHT22;24602;44.780;20.408;2022-08-21T04:19:30;20.30;99.90
38848;DHT22;24602;44.780;20.408;2022-08-21T04:22:00;20.30;99.90
38848;DHT22;24602;44.780;20.408;2022-08-21T04:24:28;20.40;99.90
38848;DHT22;24602;44.780;20.408;2022-08-21T04:26:59;20.40;99.90
38848;DHT22;24602;44.780;20.408;2022-08-21T04:29:29;20.40;99.90
38848;DHT22;24602;44.780;20.408;2022-08-21T04:32:06;20.30;99.90
38848;DHT22;24602;44.780;20.408;2022-08-21T04:34:37;20.30;99.90
38848;DHT22;24602;44.780;20.408;2022-08-21T04:37:06;20.30;99.90
38848;DHT22;24602;44.780;20.408;2022-08-21T04:39:38;20.30;99.90
38848;DHT22;24602;44.780;20.408;2022-08-21T04:42:11;20.40;99.90
38848;DHT22;24602;44.780;20.408;2022-08-21T04:44:41;20.30;99.90
38848;DHT22;24602;44.780;20.408;2022-08-21T04:47:11;20.30;99.90
38848;DHT22;24602;44.780;20.408;2022-08-21T04:49:43;20.30;99.90
38848;DHT22;24602;44.780;20.408;2022-08-21T04:52:53;20.40;99.90
38848;DHT22;24602;44.780;20.408;2022-08-21T04:55:25;20.40;99.90
38848;DHT22;24602;44.780;20.408;2022-08-21T04:57:59;20.50;99.90
38848;DHT22;24602;44.780;20.408;2022-08-21T05:00:32;20.60;99.90
38848;DHT22;24602;44.780;20.408;2022-08-21T05:03:05;20.50;99.90
38848;DHT22;24602;44.780;20.408;2022-08-21T05:05:38;20.50;99.90
38848;DHT22;24602;44.780;20.408;2022-08-21T05:08:09;20.50;99.90
38848;DHT22;24602;44.780;20.408;2022-08-21T05:10:44;20.50;99.90
38848;DHT22;24602;44.780;20.408;2022-08-21T05:13:16;20.60;99.90
38848;DHT22;24602;44.780;20.408;2022-08-21T05:15:48;20.50;99.90
38848;DHT22;24602;44.780;20.408;2022-08-21T05:18:21;20.50;99.90
38848;DHT22;24602;44.780;20.408;2022-08-21T05:20:54;20.50;99.90
38848;DHT22;24602;44.780;20.408;2022-08-21T05:23:24;20.50;99.90
38848;DHT22;24602;44.780;20.408;2022-08-21T05:25:57;20.50;99.90
38848;DHT22;24602;44.780;20.408;2022-08-21T05:28:27;20.50;99.90
38848;DHT22;24602;44.780;20.408;2022-08-21T05:30:55;20.50;99.90
38848;DHT22;24602;44.780;20.408;2022-08-21T05:33:26;20.60;99.90
38848;DHT22;24602;44.780;20.408;2022-08-21T05:35:56;20.60;99.90
38848;DHT22;24602;44.780;20.408;2022-08-21T05:38:29;20.60;99.90
38848;DHT22;24602;44.780;20.408;2022-08-21T05:41:00;20.60;99.90
38848;DHT22;24602;44.780;20.408;2022-08-21T05:43:28;20.60;99.90
38848;DHT22;24602;44.780;20.408;2022-08-21T05:45:58;20.60;99.90
38848;DHT22;24602;44.780;20.408;2022-08-21T05:48:30;20.60;99.90
38848;DHT22;24602;44.780;20.408;2022-08-21T05:51:09;20.60;99.90
38848;DHT22;24602;44.780;20.408;2022-08-21T05:53:42;20.70;99.90
38848;DHT22;24602;44.780;20.408;2022-08-21T05:56:14;20.80;99.90
38848;DHT22;24602;44.780;20.408;2022-08-21T05:58:44;20.80;99.90
38848;DHT22;24602;44.780;20.408;2022-08-21T06:01:12;20.90;99.90
38848;DHT22;24602;44.780;20.408;2022-08-21T06:03:43;21.00;99.90
38848;DHT22;24602;44.780;20.408;2022-08-21T06:06:14;21.00;99.90
38848;DHT22;24602;44.780;20.408;2022-08-21T06:08:41;21.10;99.90
38848;DHT22;24602;44.780;20.408;2022-08-21T06:11:09;21.20;99.90
38848;DHT22;24602;44.780;20.408;2022-08-21T06:13:40;21.20;99.90
38848;DHT22;24602;44.780;20.408;2022-08-21T06:16:15;21.40;99.90
38848;DHT22;24602;44.780;20.408;2022-08-21T06:18:47;21.40;99.90
38848;DHT22;24602;44.780;20.408;2022-08-21T06:21:18;21.40;99.90
38848;DHT22;24602;44.780;20.408;2022-08-21T06:23:48;21.50;99.90
38848;DHT22;24602;44.780;20.408;2022-08-21T06:26:18;21.50;99.90
38848;DHT22;24602;44.780;20.408;2022-08-21T06:28:47;21.50;99.90
38848;DHT22;24602;44.780;20.408;2022-08-21T06:31:20;21.50;99.90
38848;DHT22;24602;44.780;20.408;2022-08-21T06:33:48;21.40;99.90
38848;DHT22;24602;44.780;20.408;2022-08-21T06:36:23;21.40;99.90
38848;DHT22;24602;44.780;20.408;2022-08-21T06:38:58;21.40;99.90
38848;DHT22;24602;44.780;20.408;2022-08-21T06:41:27;21.50;99.90
38848;DHT22;24602;44.780;20.408;2022-08-21T06:43:58;21.50;99.90
38848;DHT22;24602;44.780;20.408;2022-08-21T06:46:30;21.50;99.90
38848;DHT22;24602;44.780;20.408;2022-08-21T06:48:58;21.60;99.90
38848;DHT22;24602;44.780;20.408;2022-08-21T06:51:29;21.60;99.90
38848;DHT22;24602;44.780;20.408;2022-08-21T06:53:57;21.50;99.90
38848;DHT22;24602;44.780;20.408;2022-08-21T06:56:27;21.40;99.90
38848;DHT22;24602;44.780;20.408;2022-08-21T06:58:59;21.40;99.90
38848;DHT22;24602;44.780;20.408;2022-08-21T07:01:27;21.50;99.90
38848;DHT22;24602;44.780;20.408;2022-08-21T07:03:58;21.50;99.90
38848;DHT22;24602;44.780;20.408;2022-08-21T07:06:29;21.50;99.90
38848;DHT22;24602;44.780;20.408;2022-08-21T07:09:03;21.50;99.90
38848;DHT22;24602;44.780;20.408;2022-08-21T07:11:35;21.50;99.90
38848;DHT22;24602;44.780;20.408;2022-08-21T07:14:18;21.60;99.90
38848;DHT22;24602;44.780;20.408;2022-08-21T07:16:49;21.60;99.90
38848;DHT22;24602;44.780;20.408;2022-08-21T07:19:23;21.70;99.90
38848;DHT22;24602;44.780;20.408;2022-08-21T07:21:57;21.60;99.90
38848;DHT22;24602;44.780;20.408;2022-08-21T07:24:30;21.60;99.90
38848;DHT22;24602;44.780;20.408;2022-08-21T07:27:01;21.70;99.90
38848;DHT22;24602;44.780;20.408;2022-08-21T07:29:37;21.80;99.90
38848;DHT22;24602;44.780;20.408;2022-08-21T07:32:06;21.90;99.90
38848;DHT22;24602;44.780;20.408;2022-08-21T07:34:35;22.00;99.90
38848;DHT22;24602;44.780;20.408;2022-08-21T07:37:07;22.20;99.90
38848;DHT22;24602;44.780;20.408;2022-08-21T07:39:37;22.20;99.90
38848;DHT22;24602;44.780;20.408;2022-08-21T07:42:10;22.40;99.90
38848;DHT22;24602;44.780;20.408;2022-08-21T07:44:42;22.40;99.90
38848;DHT22;24602;44.780;20.408;2022-08-21T07:47:17;22.30;99.90
38848;DHT22;24602;44.780;20.408;2022-08-21T07:50:11;22.20;99.90
38848;DHT22;24602;44.780;20.408;2022-08-21T07:52:56;22.00;99.90
38848;DHT22;24602;44.780;20.408;2022-08-21T07:55:27;21.90;99.90
38848;DHT22;24602;44.780;20.408;2022-08-21T07:57:57;21.90;99.90
38848;DHT22;24602;44.780;20.408;2022-08-21T08:00:27;21.80;99.90
38848;DHT22;24602;44.780;20.408;2022-08-21T08:02:57;21.80;99.90
38848;DHT22;24602;44.780;20.408;2022-08-21T08:05:29;21.80;99.90
38848;DHT22;24602;44.780;20.408;2022-08-21T08:07:58;21.80;99.90
38848;DHT22;24602;44.780;20.408;2022-08-21T08:10:29;21.80;99.90
38848;DHT22;24602;44.780;20.408;2022-08-21T08:13:01;21.80;99.90
38848;DHT22;24602;44.780;20.408;2022-08-21T08:15:31;21.80;99.90
38848;DHT22;24602;44.780;20.408;2022-08-21T08:18:05;21.80;99.90
38848;DHT22;24602;44.780;20.408;2022-08-21T08:20:35;21.80;99.90
38848;DHT22;24602;44.780;20.408;2022-08-21T08:23:06;21.80;99.90
38848;DHT22;24602;44.780;20.408;2022-08-21T08:25:36;21.90;99.90
38848;DHT22;24602;44.780;20.408;2022-08-21T08:28:07;21.90;99.90
38848;DHT22;24602;44.780;20.408;2022-08-21T08:30:46;21.80;99.90
38848;DHT22;24602;44.780;20.408;2022-08-21T08:33:18;21.70;99.90
38848;DHT22;24602;44.780;20.408;2022-08-21T08:35:51;21.80;99.90
38848;DHT22;24602;44.780;20.408;2022-08-21T08:38:24;21.80;99.90
38848;DHT22;24602;44.780;20.408;2022-08-21T08:41:12;21.70;99.90
38848;DHT22;24602;44.780;20.408;2022-08-21T08:43:57;21.80;99.90
38848;DHT22;24602;44.780;20.408;2022-08-21T08:46:49;21.80;99.90
38848;DHT22;24602;44.780;20.408;2022-08-21T08:49:30;21.80;99.90
38848;DHT22;24602;44.780;20.408;2022-08-21T08:54:33;21.90;99.90
38848;DHT22;24602;44.780;20.408;2022-08-21T08:57:03;21.90;99.90
38848;DHT22;24602;44.780;20.408;2022-08-21T08:59:56;22.00;99.90
38848;DHT22;24602;44.780;20.408;2022-08-21T09:02:34;22.10;99.90
38848;DHT22;24602;44.780;20.408;2022-08-21T09:05:09;22.10;99.90
38848;DHT22;24602;44.780;20.408;2022-08-21T09:11:29;22.10;99.90
38848;DHT22;24602;44.780;20.408;2022-08-21T09:17:18;22.10;99.90
38848;DHT22;24602;44.780;20.408;2022-08-21T09:20:47;22.20;99.90
38848;DHT22;24602;44.780;20.408;2022-08-21T09:26:18;22.10;99.90
38848;DHT22;24602;44.780;20.408;2022-08-21T09:28:55;22.20;99.90
38848;DHT22;24602;44.780;20.408;2022-08-21T09:31:32;22.10;99.90
38848;DHT22;24602;44.780;20.408;2022-08-21T09:34:28;22.00;99.90
38848;DHT22;24602;44.780;20.408;2022-08-21T09:36:59;22.00;99.90
38848;DHT22;24602;44.780;20.408;2022-08-21T09:39:38;22.00;99.90
38848;DHT22;24602;44.780;20.408;2022-08-21T09:42:30;21.90;99.90
38848;DHT22;24602;44.780;20.408;2022-08-21T09:45:17;21.90;99.90
38848;DHT22;24602;44.780;20.408;2022-08-21T09:47:46;21.90;99.90
38848;DHT22;24602;44.780;20.408;2022-08-21T09:50:23;21.90;99.90
38848;DHT22;24602;44.780;20.408;2022-08-21T09:52:58;21.90;99.90
38848;DHT22;24602;44.780;20.408;2022-08-21T09:55:40;21.90;99.90
38848;DHT22;24602;44.780;20.408;2022-08-21T09:58:39;22.00;99.90
38848;DHT22;24602;44.780;20.408;2022-08-21T10:01:25;21.90;99.90
38848;DHT22;24602;44.780;20.408;2022-08-21T10:04:11;21.90;99.90
38848;DHT22;24602;44.780;20.408;2022-08-21T10:06:43;21.90;99.90
38848;DHT22;24602;44.780;20.408;2022-08-21T10:09:15;21.90;99.90
38848;DHT22;24602;44.780;20.408;2022-08-21T10:12:21;21.80;99.90
38848;DHT22;24602;44.780;20.408;2022-08-21T10:15:02;21.50;99.90
38848;DHT22;24602;44.780;20.408;2022-08-21T10:20:40;20.80;99.90
38848;DHT22;24602;44.780;20.408;2022-08-21T10:35:30;20.20;99.90
38848;DHT22;24602;44.780;20.408;2022-08-21T10:47:23;20.10;99.90
38848;DHT22;24602;44.780;20.408;2022-08-21T10:53:21;20.00;99.90
38848;DHT22;24602;44.780;20.408;2022-08-21T10:56:23;20.00;99.90
38848;DHT22;24602;44.780;20.408;2022-08-21T10:59:33;20.00;99.90
38848;DHT22;24602;44.780;20.408;2022-08-21T11:02:30;20.00;99.90
38848;DHT22;24602;44.780;20.408;2022-08-21T11:05:33;20.00;99.90
38848;DHT22;24602;44.780;20.408;2022-08-21T11:11:34;20.00;99.90
38848;DHT22;24602;44.780;20.408;2022-08-21T11:14:17;20.00;99.90
38848;DHT22;24602;44.780;20.408;2022-08-21T11:17:13;20.10;99.90
38848;DHT22;24602;44.780;20.408;2022-08-21T11:20:03;20.10;99.90
38848;DHT22;24602;44.780;20.408;2022-08-21T11:22:58;20.10;99.90
38848;DHT22;24602;44.780;20.408;2022-08-21T11:25:44;20.20;99.90
38848;DHT22;24602;44.780;20.408;2022-08-21T11:28:26;20.10;99.90
38848;DHT22;24602;44.780;20.408;2022-08-21T11:34:34;20.20;99.90
38848;DHT22;24602;44.780;20.408;2022-08-21T11:37:45;20.10;99.90
38848;DHT22;24602;44.780;20.408;2022-08-21T11:46:10;20.20;99.90
38848;DHT22;24602;44.780;20.408;2022-08-21T11:52:38;20.30;99.90
38848;DHT22;24602;44.780;20.408;2022-08-21T12:04:22;20.50;99.90
38848;DHT22;24602;44.780;20.408;2022-08-21T12:07:28;20.50;99.90
38848;DHT22;24602;44.780;20.408;2022-08-21T12:09:58;20.60;99.90
38848;DHT22;24602;44.780;20.408;2022-08-21T12:12:33;20.60;99.90
38848;DHT22;24602;44.780;20.408;2022-08-21T12:15:25;20.60;99.90
38848;DHT22;24602;44.780;20.408;2022-08-21T12:17:58;20.70;99.90
38848;DHT22;24602;44.780;20.408;2022-08-21T12:21:25;20.80;99.90
38848;DHT22;24602;44.780;20.408;2022-08-21T12:24:18;20.70;99.90
38848;DHT22;24602;44.780;20.408;2022-08-21T12:29:45;20.80;99.90
38848;DHT22;24602;44.780;20.408;2022-08-21T12:32:22;20.70;99.90
38848;DHT22;24602;44.780;20.408;2022-08-21T12:35:09;20.70;99.90
38848;DHT22;24602;44.780;20.408;2022-08-21T12:38:49;20.80;99.90
38848;DHT22;24602;44.780;20.408;2022-08-21T12:43:41;20.80;99.90
38848;DHT22;24602;44.780;20.408;2022-08-21T12:46:36;20.90;99.90
38848;DHT22;24602;44.780;20.408;2022-08-21T12:49:14;21.10;99.90
38848;DHT22;24602;44.780;20.408;2022-08-21T12:52:06;21.30;99.90
38848;DHT22;24602;44.780;20.408;2022-08-21T12:54:44;21.30;99.90
38848;DHT22;24602;44.780;20.408;2022-08-21T12:57:26;21.20;99.90
38848;DHT22;24602;44.780;20.408;2022-08-21T13:00:04;21.30;99.90
38848;DHT22;24602;44.780;20.408;2022-08-21T13:02:42;21.40;99.90
38848;DHT22;24602;44.780;20.408;2022-08-21T13:05:16;21.30;99.90
38848;DHT22;24602;44.780;20.408;2022-08-21T13:07:58;21.30;99.90
38848;DHT22;24602;44.780;20.408;2022-08-21T13:10:37;21.40;99.90
38848;DHT22;24602;44.780;20.408;2022-08-21T13:13:23;21.40;99.90
38848;DHT22;24602;44.780;20.408;2022-08-21T13:16:04;21.30;99.90
38848;DHT22;24602;44.780;20.408;2022-08-21T13:18:39;21.30;99.90
38848;DHT22;24602;44.780;20.408;2022-08-21T13:21:29;21.30;99.90
38848;DHT22;24602;44.780;20.408;2022-08-21T13:24:29;21.30;99.90
38848;DHT22;24602;44.780;20.408;2022-08-21T13:27:25;21.20;99.90
38848;DHT22;24602;44.780;20.408;2022-08-21T13:30:18;21.10;99.90
38848;DHT22;24602;44.780;20.408;2022-08-21T13:32:59;21.00;99.90
38848;DHT22;24602;44.780;20.408;2022-08-21T13:38:34;21.00;99.90
38848;DHT22;24602;44.780;20.408;2022-08-21T13:41:31;21.00;99.90
38848;DHT22;24602;44.780;20.408;2022-08-21T13:44:13;20.80;99.90
38848;DHT22;24602;44.780;20.408;2022-08-21T13:46:51;20.80;99.90
38848;DHT22;24602;44.780;20.408;2022-08-21T13:49:31;20.70;99.90
38848;DHT22;24602;44.780;20.408;2022-08-21T13:52:03;20.70;99.90
38848;DHT22;24602;44.780;20.408;2022-08-21T13:54:37;20.80;99.90
38848;DHT22;24602;44.780;20.408;2022-08-21T13:57:18;20.80;99.90
38848;DHT22;24602;44.780;20.408;2022-08-21T13:59:50;20.80;99.90
38848;DHT22;24602;44.780;20.408;2022-08-21T14:02:22;20.90;99.90
38848;DHT22;24602;44.780;20.408;2022-08-21T14:04:57;20.90;99.90
38848;DHT22;24602;44.780;20.408;2022-08-21T14:07:39;20.90;99.90
38848;DHT22;24602;44.780;20.408;2022-08-21T14:10:24;20.90;99.90
38848;DHT22;24602;44.780;20.408;2022-08-21T14:13:03;20.90;99.90
38848;DHT22;24602;44.780;20.408;2022-08-21T14:15:36;20.90;99.90
38848;DHT22;24602;44.780;20.408;2022-08-21T14:18:15;21.00;99.90
38848;DHT22;24602;44.780;20.408;2022-08-21T14:20:49;21.00;99.90
38848;DHT22;24602;44.780;20.408;2022-08-21T14:23:27;21.00;99.90
38848;DHT22;24602;44.780;20.408;2022-08-21T14:26:03;20.80;99.90
38848;DHT22;24602;44.780;20.408;2022-08-21T14:28:39;20.70;99.90
38848;DHT22;24602;44.780;20.408;2022-08-21T14:31:16;20.60;99.90
38848;DHT22;24602;44.780;20.408;2022-08-21T14:33:48;20.70;99.90
38848;DHT22;24602;44.780;20.408;2022-08-21T14:36:19;20.70;99.90
38848;DHT22;24602;44.780;20.408;2022-08-21T14:38:49;20.70;99.90
38848;DHT22;24602;44.780;20.408;2022-08-21T14:41:26;20.70;99.90
38848;DHT22;24602;44.780;20.408;2022-08-21T14:43:57;20.70;99.90
38848;DHT22;24602;44.780;20.408;2022-08-21T14:46:38;20.70;99.90
38848;DHT22;24602;44.780;20.408;2022-08-21T14:49:27;20.70;99.90
38848;DHT22;24602;44.780;20.408;2022-08-21T14:51:57;20.80;99.90
38848;DHT22;24602;44.780;20.408;2022-08-21T14:54:29;20.80;99.90
38848;DHT22;24602;44.780;20.408;2022-08-21T14:57:07;20.90;99.90
38848;DHT22;24602;44.780;20.408;2022-08-21T14:59:43;20.80;99.90
38848;DHT22;24602;44.780;20.408;2022-08-21T15:02:12;20.90;99.90
38848;DHT22;24602;44.780;20.408;2022-08-21T15:04:40;20.80;99.90
38848;DHT22;24602;44.780;20.408;2022-08-21T15:07:10;20.90;99.90
38848;DHT22;24602;44.780;20.408;2022-08-21T15:09:41;20.80;99.90
38848;DHT22;24602;44.780;20.408;2022-08-21T15:12:12;20.90;99.90
38848;DHT22;24602;44.780;20.408;2022-08-21T15:14:41;20.90;99.90
38848;DHT22;24602;44.780;20.408;2022-08-21T15:17:11;20.90;99.90
38848;DHT22;24602;44.780;20.408;2022-08-21T15:19:41;20.90;99.90
38848;DHT22;24602;44.780;20.408;2022-08-21T15:22:10;21.00;99.90
38848;DHT22;24602;44.780;20.408;2022-08-21T15:24:46;21.00;99.90
38848;DHT22;24602;44.780;20.408;2022-08-21T15:27:19;20.90;99.90
38848;DHT22;24602;44.780;20.408;2022-08-21T15:29:53;20.80;99.90
38848;DHT22;24602;44.780;20.408;2022-08-21T15:32:27;20.80;99.90
38848;DHT22;24602;44.780;20.408;2022-08-21T15:35:01;20.90;99.90
38848;DHT22;24602;44.780;20.408;2022-08-21T15:37:32;20.80;99.90
38848;DHT22;24602;44.780;20.408;2022-08-21T15:40:06;20.80;99.90
38848;DHT22;24602;44.780;20.408;2022-08-21T15:42:40;20.70;99.90
38848;DHT22;24602;44.780;20.408;2022-08-21T15:45:12;20.80;99.90
38848;DHT22;24602;44.780;20.408;2022-08-21T15:47:43;20.70;99.90
38848;DHT22;24602;44.780;20.408;2022-08-21T15:50:17;20.80;99.90
38848;DHT22;24602;44.780;20.408;2022-08-21T15:52:47;20.80;99.90
38848;DHT22;24602;44.780;20.408;2022-08-21T15:55:17;20.80;99.90
38848;DHT22;24602;44.780;20.408;2022-08-21T15:57:52;20.90;99.90
38848;DHT22;24602;44.780;20.408;2022-08-21T16:00:26;20.90;99.90
38848;DHT22;24602;44.780;20.408;2022-08-21T16:02:58;20.90;99.90
38848;DHT22;24602;44.780;20.408;2022-08-21T16:05:33;20.80;99.90
38848;DHT22;24602;44.780;20.408;2022-08-21T16:08:05;20.80;99.90
38848;DHT22;24602;44.780;20.408;2022-08-21T16:10:36;20.80;99.90
38848;DHT22;24602;44.780;20.408;2022-08-21T16:13:16;20.80;99.90
38848;DHT22;24602;44.780;20.408;2022-08-21T16:15:46;20.80;99.90
38848;DHT22;24602;44.780;20.408;2022-08-21T16:18:19;20.80;99.90
38848;DHT22;24602;44.780;20.408;2022-08-21T16:20:50;20.70;99.90
38848;DHT22;24602;44.780;20.408;2022-08-21T16:23:22;20.70;99.90
38848;DHT22;24602;44.780;20.408;2022-08-21T16:25:50;20.70;99.90
38848;DHT22;24602;44.780;20.408;2022-08-21T16:28:22;20.80;99.90
38848;DHT22;24602;44.780;20.408;2022-08-21T16:30:55;20.70;99.90
38848;DHT22;24602;44.780;20.408;2022-08-21T16:33:50;20.70;99.90
38848;DHT22;24602;44.780;20.408;2022-08-21T16:36:25;20.70;99.90
38848;DHT22;24602;44.780;20.408;2022-08-21T16:39:02;20.70;99.90
38848;DHT22;24602;44.780;20.408;2022-08-21T16:41:34;20.70;99.90
38848;DHT22;24602;44.780;20.408;2022-08-21T16:44:07;20.70;99.90
38848;DHT22;24602;44.780;20.408;2022-08-21T16:46:39;20.60;99.90
38848;DHT22;24602;44.780;20.408;2022-08-21T16:49:11;20.60;99.90
38848;DHT22;24602;44.780;20.408;2022-08-21T16:51:42;20.60;99.90
38848;DHT22;24602;44.780;20.408;2022-08-21T16:54:13;20.60;99.90
38848;DHT22;24602;44.780;20.408;2022-08-21T16:56:44;20.60;99.90
38848;DHT22;24602;44.780;20.408;2022-08-21T16:59:17;20.60;99.90
38848;DHT22;24602;44.780;20.408;2022-08-21T17:01:48;20.60;99.90
38848;DHT22;24602;44.780;20.408;2022-08-21T17:04:18;20.50;99.90
38848;DHT22;24602;44.780;20.408;2022-08-21T17:06:51;20.60;99.90
38848;DHT22;24602;44.780;20.408;2022-08-21T17:09:23;20.60;99.90
38848;DHT22;24602;44.780;20.408;2022-08-21T17:11:54;20.60;99.90
38848;DHT22;24602;44.780;20.408;2022-08-21T17:14:28;20.60;99.90
38848;DHT22;24602;44.780;20.408;2022-08-21T17:16:56;20.60;99.90
38848;DHT22;24602;44.780;20.408;2022-08-21T17:19:28;20.60;99.90